Time;durP1;ratioP1;P1;durP2;ratioP2;P2;SDS_P1;SDS_P2;PMS_P1;PMS_P2;Temp;Humidity;BMP_temperature;BMP_pressure;BME280_temperature;BME280_humidity;BME280_pressure;Samples;Min_cycle;Max_cycle;Signal;HPM_P1;HPM_P2
2022/05/27 00:01:28;;;;;;;10.87;10.17;;;;;;;17.48;70.62;93404.47;5063947;28;20218;-77
2022/05/27 00:03:55;;;;;;;10.40;9.60;;;;;;;17.41;70.85;93404.09;5069265;28;20182;-77
2022/05/27 00:06:22;;;;;;;10.10;9.20;;;;;;;17.24;70.74;93393.41;5067410;28;20300;-77
2022/05/27 00:08:47;;;;;;;9.53;8.83;;;;;;;17.34;71.10;93381.81;5070127;28;20268;-77
2022/05/27 00:11:13;;;;;;;13.53;9.33;;;;;;;17.37;71.99;93395.19;5067272;28;20251;-77
2022/05/27 00:13:40;;;;;;;10.40;9.53;;;;;;;17.40;71.38;93397.22;5068500;28;20710;-76
2022/05/27 00:16:06;;;;;;;13.03;9.00;;;;;;;17.41;71.45;93396.16;5069037;28;20213;-77
2022/05/27 00:18:32;;;;;;;10.07;9.27;;;;;;;17.21;72.31;93398.50;5069674;28;20254;-77
2022/05/27 00:20:59;;;;;;;10.03;9.40;;;;;;;17.29;72.04;93398.53;5066085;28;20222;-77
2022/05/27 00:23:25;;;;;;;10.57;9.87;;;;;;;17.19;71.39;93382.97;5069177;28;20200;-77
2022/05/27 00:25:50;;;;;;;10.50;9.73;;;;;;;17.31;71.58;93393.75;5068206;28;20241;-77
2022/05/27 00:28:16;;;;;;;10.00;9.40;;;;;;;17.00;70.96;93374.44;5068949;28;20213;-77
2022/05/27 00:30:41;;;;;;;9.80;9.00;;;;;;;17.03;72.15;93392.28;5068523;28;20232;-76
2022/05/27 00:33:07;;;;;;;10.07;9.17;;;;;;;17.12;71.81;93392.38;5069179;28;20252;-77
2022/05/27 00:35:33;;;;;;;10.03;9.13;;;;;;;17.19;71.17;93385.59;5068020;28;20282;-78
2022/05/27 00:37:59;;;;;;;9.87;9.27;;;;;;;17.10;71.78;93386.59;5069183;28;20182;-77
2022/05/27 00:40:26;;;;;;;10.03;9.13;;;;;;;17.01;71.71;93383.88;5068012;28;20221;-77
2022/05/27 00:42:52;;;;;;;9.73;9.00;;;;;;;16.80;71.62;93372.25;5069765;28;20248;-77
2022/05/27 00:45:23;;;;;;;9.40;8.67;;;;;;;16.74;71.70;93362.88;5069195;28;20228;-77
2022/05/27 00:47:52;;;;;;;9.53;8.67;;;;;;;17.03;71.52;93379.09;5068154;28;20239;-78
2022/05/27 00:50:21;;;;;;;9.53;8.87;;;;;;;16.96;71.18;93376.13;5068651;28;20236;-77
2022/05/27 00:52:48;;;;;;;9.27;8.67;;;;;;;16.73;72.06;93355.28;5068833;28;20205;-77
2022/05/27 00:55:18;;;;;;;9.50;8.70;;;;;;;16.82;72.28;93367.47;5068188;28;20178;-77
2022/05/27 00:57:49;;;;;;;10.07;9.27;;;;;;;16.86;71.46;93373.69;5069288;28;20188;-77
2022/05/27 01:00:18;;;;;;;9.80;8.90;;;;;;;16.92;69.17;93359.31;5069112;28;20186;-77
2022/05/27 01:02:45;;;;;;;8.80;8.23;;;;;;;17.25;66.54;93381.75;5066349;28;20197;-76
2022/05/27 01:05:14;;;;;;;9.20;8.63;;;;;;;17.38;66.49;93373.00;5068524;28;20193;-75
2022/05/27 01:07:39;;;;;;;8.67;8.13;;;;;;;17.36;66.31;93359.31;5066642;28;20205;-76
2022/05/27 01:10:09;;;;;;;8.97;8.27;;;;;;;17.65;65.05;93376.59;5067343;28;20204;-76
2022/05/27 01:12:43;;;;;;;8.90;8.30;;;;;;;17.77;64.08;93376.81;5067000;28;20193;-74
2022/05/27 01:15:51;;;;;;;8.67;8.07;;;;;;;17.77;63.79;93371.53;5067896;28;20181;-76
2022/05/27 01:22:02;;;;;;;8.83;7.50;;;;;;;17.63;67.17;93368.97;5065928;28;20229;-75
2022/05/27 01:24:42;;;;;;;9.53;8.93;;;;;;;17.37;68.32;93366.16;5068209;28;20207;-75
2022/05/27 01:27:31;;;;;;;9.00;8.30;;;;;;;17.19;69.13;93369.75;5067204;28;20232;-76
2022/05/27 01:30:22;;;;;;;9.53;8.80;;;;;;;17.21;69.57;93361.53;5067909;28;20236;-75
2022/05/27 01:33:00;;;;;;;8.30;7.73;;;;;;;17.22;68.43;93353.31;5066440;28;20181;-75
2022/05/27 01:35:41;;;;;;;9.67;8.97;;;;;;;17.00;69.24;93353.31;5067108;28;20236;-75
2022/05/27 01:38:26;;;;;;;8.90;8.30;;;;;;;16.82;69.69;93356.91;5066867;28;20197;-75
2022/05/27 01:41:23;;;;;;;9.30;8.73;;;;;;;16.80;70.38;93351.16;5067143;28;20251;-75
2022/05/27 01:43:52;;;;;;;10.80;9.83;;;;;;;16.79;70.46;93346.16;5063437;28;20224;-75
2022/05/27 01:46:21;;;;;;;11.33;10.30;;;;;;;16.79;70.34;93348.81;5061568;28;20280;-75
2022/05/27 01:49:08;;;;;;;17.07;14.00;;;;;;;16.71;70.36;93352.94;5049015;28;20265;-76
2022/05/27 01:51:46;;;;;;;26.80;17.87;;;;;;;16.64;70.62;93357.06;5047574;28;20265;-75
2022/05/27 01:54:32;;;;;;;21.90;15.37;;;;;;;16.48;72.99;93348.69;5048621;28;20306;-75
2022/05/27 01:57:08;;;;;;;15.83;13.07;;;;;;;16.63;72.18;93351.00;5002702;28;20248;-75
2022/05/27 01:59:40;;;;;;;11.30;10.40;;;;;;;16.56;72.75;93355.88;5048833;28;20186;-75
2022/05/27 02:02:18;;;;;;;10.17;9.47;;;;;;;16.33;72.82;93354.25;5047112;28;20230;-75
2022/05/27 02:04:58;;;;;;;10.30;9.67;;;;;;;16.53;72.68;93356.47;5048907;28;20257;-75
2022/05/27 02:07:31;;;;;;;8.60;7.90;;;;;;;16.37;72.27;93351.81;5045806;28;20234;-76
2022/05/27 02:10:02;;;;;;;8.80;8.23;;;;;;;16.43;72.12;93356.69;5045310;28;20187;-75
2022/05/27 02:12:40;;;;;;;9.77;9.03;;;;;;;16.33;72.16;93332.41;5046963;28;20189;-75
2022/05/27 02:15:10;;;;;;;9.70;9.00;;;;;;;16.48;72.41;93356.59;5050677;28;20190;-74
2022/05/27 02:17:42;;;;;;;10.30;9.60;;;;;;;16.22;73.77;93347.63;5051112;28;20205;-75
2022/05/27 02:20:13;;;;;;;8.47;7.97;;;;;;;16.19;73.55;93350.84;5048243;28;20193;-76
2022/05/27 02:22:43;;;;;;;9.30;8.43;;;;;;;16.28;72.76;93343.78;5050030;28;20181;-80
2022/05/27 02:25:15;;;;;;;9.17;8.37;;;;;;;16.35;72.78;93354.72;5050823;28;20213;-80
2022/05/27 02:27:55;;;;;;;9.43;8.73;;;;;;;16.27;72.88;93352.78;5050023;28;20222;-80
2022/05/27 02:30:29;;;;;;;10.03;9.33;;;;;;;16.16;73.15;93351.44;5051308;28;20237;-79
2022/05/27 02:35:50;;;;;;;9.73;8.83;;;;;;;15.99;73.66;93353.88;5051084;28;20233;-81
2022/05/27 02:38:16;;;;;;;9.43;8.83;;;;;;;16.04;73.32;93343.25;5052359;28;20192;-80
2022/05/27 02:41:30;;;;;;;10.53;9.30;;;;;;;15.99;73.49;93356.50;5051713;28;20225;-81
2022/05/27 02:44:11;;;;;;;8.70;8.10;;;;;;;15.95;73.04;93326.56;5021000;28;20202;-81
2022/05/27 02:46:54;;;;;;;10.60;9.77;;;;;;;16.30;72.41;93360.09;5058780;28;20225;-80
2022/05/27 02:49:33;;;;;;;10.80;9.90;;;;;;;16.22;72.15;93342.34;5070410;28;20202;-81
2022/05/27 02:52:35;;;;;;;10.03;9.23;;;;;;;16.15;72.97;93341.97;5070992;28;20225;-80
2022/05/27 02:55:13;;;;;;;9.90;9.20;;;;;;;16.21;72.76;93335.53;5071187;28;20248;-80
2022/05/27 02:57:48;;;;;;;11.33;10.43;;;;;;;16.39;72.19;93358.31;5070051;28;20177;-81
2022/05/27 03:00:26;;;;;;;10.80;9.80;;;;;;;16.35;72.37;93349.47;5070569;28;20214;-80
2022/05/27 03:02:53;;;;;;;9.83;9.17;;;;;;;16.54;71.94;93362.53;5071070;28;20227;-81
2022/05/27 03:05:22;;;;;;;10.37;9.47;;;;;;;16.48;73.08;93361.88;5069640;28;20209;-79
2022/05/27 03:08:03;;;;;;;8.43;7.80;;;;;;;16.65;72.13;93351.50;5071418;28;20324;-81
2022/05/27 03:10:28;;;;;;;10.33;9.33;;;;;;;16.64;71.94;93359.69;5071003;28;20252;-81
2022/05/27 03:13:23;;;;;;;9.37;8.77;;;;;;;16.88;70.75;93358.34;5071679;28;20406;-82
2022/05/27 03:16:15;;;;;;;8.47;7.97;;;;;;;16.90;71.14;93348.25;5006388;28;20229;-81
2022/05/27 03:19:15;;;;;;;10.23;9.63;;;;;;;17.05;70.33;93369.03;5071043;28;20245;-80
2022/05/27 03:22:11;;;;;;;15.40;9.10;;;;;;;17.22;69.72;93373.66;5070288;28;20225;-81
2022/05/27 03:25:01;;;;;;;12.90;10.27;;;;;;;17.48;69.02;93379.91;5070255;28;20173;-80
2022/05/27 03:27:40;;;;;;;10.37;9.40;;;;;;;17.82;67.45;93377.44;5069822;28;20239;-80
2022/05/27 03:30:19;;;;;;;10.33;9.53;;;;;;;17.74;67.45;93353.66;5068724;28;20224;-82
2022/05/27 03:32:51;;;;;;;9.87;9.17;;;;;;;18.24;65.97;93371.56;5050104;28;20191;-80
2022/05/27 03:35:22;;;;;;;9.73;8.93;;;;;;;18.13;66.82;93378.22;5032788;28;20277;-80
2022/05/27 03:38:10;;;;;;;10.30;9.50;;;;;;;18.42;66.21;93367.91;5050492;28;20201;-80
2022/05/27 03:40:52;;;;;;;10.10;9.20;;;;;;;18.49;66.22;93359.53;5049989;28;20231;-81
2022/05/27 03:43:19;;;;;;;9.20;8.50;;;;;;;19.19;63.71;93357.41;5052766;28;20174;-81
2022/05/27 03:45:51;;;;;;;9.60;8.80;;;;;;;19.40;63.57;93357.56;5050082;28;20226;-81
2022/05/27 03:48:19;;;;;;;8.70;8.10;;;;;;;19.41;62.65;93349.28;5029768;28;20227;-86
2022/05/27 03:50:47;;;;;;;9.13;8.53;;;;;;;19.43;63.29;93356.94;5034756;28;20245;-82
2022/05/27 03:53:12;;;;;;;10.57;9.13;;;;;;;19.26;63.95;93367.50;5048874;28;20215;-76
2022/05/27 03:55:44;;;;;;;10.87;9.90;;;;;;;19.19;65.29;93362.72;5050151;28;20231;-82
2022/05/27 03:58:13;;;;;;;9.10;8.60;;;;;;;19.55;64.61;93368.44;5049042;28;20214;-81
2022/05/27 04:00:39;;;;;;;8.87;8.37;;;;;;;19.51;64.18;93353.50;5049767;28;20234;-83
2022/05/27 04:03:05;;;;;;;9.53;8.73;;;;;;;19.62;64.43;93371.41;5048427;28;20186;-82
2022/05/27 04:05:30;;;;;;;10.37;9.57;;;;;;;19.94;63.32;93362.88;5047646;28;20223;-79
2022/05/27 04:07:56;;;;;;;10.67;9.63;;;;;;;20.06;63.35;93370.19;5049408;28;20215;-80
2022/05/27 04:10:22;;;;;;;9.67;8.90;;;;;;;19.81;64.38;93358.56;5048334;28;20232;-76
2022/05/27 04:12:48;;;;;;;9.00;8.20;;;;;;;20.04;63.75;93367.84;5050147;28;20197;-79
2022/05/27 04:15:13;;;;;;;9.53;8.30;;;;;;;20.09;63.67;93365.03;5049688;28;20200;-73
2022/05/27 04:17:41;;;;;;;9.00;8.50;;;;;;;20.29;63.57;93374.16;5050011;28;20239;-74
2022/05/27 04:20:11;;;;;;;8.73;8.10;;;;;;;20.49;62.78;93368.13;5046918;28;20224;-75
2022/05/27 04:22:37;;;;;;;9.53;8.93;;;;;;;20.69;61.98;93376.13;5049657;28;20176;-80
2022/05/27 04:25:03;;;;;;;8.40;7.97;;;;;;;20.82;58.81;93373.56;5049154;28;20197;-75
2022/05/27 04:27:29;;;;;;;9.07;8.55;;;;;;;20.59;57.07;93336.69;5048663;28;20214;-71
2022/05/27 04:29:55;;;;;;;8.18;7.72;;;;;;;20.95;55.65;93367.22;5049358;28;20219;-75
2022/05/27 04:32:21;;;;;;;8.60;8.10;;;;;;;21.00;55.88;93380.31;5049428;28;20214;-74
2022/05/27 04:34:48;;;;;;;9.00;8.10;;;;;;;20.91;56.56;93350.38;5048095;28;20193;-76
2022/05/27 04:37:15;;;;;;;9.38;8.60;;;;;;;21.01;55.16;93373.91;5047502;28;20221;-75
2022/05/27 04:39:40;;;;;;;9.50;8.90;;;;;;;21.40;56.43;93374.22;5047998;28;20218;-76
2022/05/27 04:42:06;;;;;;;9.63;8.90;;;;;;;21.33;57.30;93370.53;5048518;28;20230;-74
2022/05/27 04:44:33;;;;;;;9.90;9.15;;;;;;;21.21;56.92;93358.00;5047490;28;20188;-76
2022/05/27 04:46:58;;;;;;;9.82;9.23;;;;;;;21.19;56.71;93370.81;5057346;28;20238;-77
2022/05/27 04:52:08;;;;;;;9.95;8.95;;;;;;;21.13;56.38;93372.13;5067154;28;20227;-79
2022/05/27 04:54:33;;;;;;;12.48;11.63;;;;;;;21.16;56.33;93362.72;5066098;28;20314;-80
2022/05/27 04:56:59;;;;;;;10.23;9.60;;;;;;;21.51;56.47;93371.94;5067438;28;20218;-79
2022/05/27 04:59:25;;;;;;;12.20;10.68;;;;;;;21.21;58.52;93373.13;5067469;28;20200;-78
2022/05/27 05:01:50;;;;;;;11.80;10.90;;;;;;;21.05;59.01;93380.13;5066866;28;20213;-78
2022/05/27 05:04:16;;;;;;;11.57;10.40;;;;;;;21.09;59.38;93378.41;5067576;28;20187;-77
2022/05/27 05:06:42;;;;;;;10.68;9.88;;;;;;;21.05;58.91;93364.97;5066046;28;20228;-78
2022/05/27 05:09:09;;;;;;;13.90;10.38;;;;;;;21.15;59.24;93372.56;5066889;28;20200;-77
2022/05/27 05:11:35;;;;;;;11.40;10.43;;;;;;;21.14;56.18;93346.31;5065551;28;20225;-78
2022/05/27 05:14:00;;;;;;;10.73;9.90;;;;;;;20.60;59.28;93364.78;5066516;28;20200;-77
2022/05/27 05:16:26;;;;;;;11.95;10.93;;;;;;;21.36;57.40;93370.66;5067438;28;20243;-77
2022/05/27 05:18:51;;;;;;;10.30;9.60;;;;;;;21.35;56.44;93361.16;5067208;28;20957;-81
2022/05/27 05:21:17;;;;;;;9.85;9.15;;;;;;;21.07;57.73;93368.09;5067793;28;20231;-83
2022/05/27 05:23:43;;;;;;;11.38;10.52;;;;;;;21.79;55.61;93372.97;5068407;28;20299;-74
2022/05/27 05:26:08;;;;;;;10.20;9.30;;;;;;;23.56;50.66;93384.19;5063413;28;20255;-77
2022/05/27 05:28:34;;;;;;;10.18;9.43;;;;;;;24.76;47.21;93377.38;5061368;28;21092;-77
2022/05/27 05:30:59;;;;;;;9.15;8.55;;;;;;;24.40;47.42;93384.88;5065851;28;20234;-76
2022/05/27 05:33:24;;;;;;;9.68;9.07;;;;;;;25.43;44.59;93381.53;5066374;28;20195;-76
2022/05/27 05:35:50;;;;;;;9.30;8.57;;;;;;;27.13;39.95;93396.78;5066327;28;20222;-76
2022/05/27 05:38:17;;;;;;;9.35;8.55;;;;;;;25.71;43.18;93386.66;5067492;28;20192;-77
2022/05/27 05:40:43;;;;;;;9.55;8.85;;;;;;;26.65;40.89;93392.97;5066247;28;20259;-77
2022/05/27 05:43:08;;;;;;;8.80;8.10;;;;;;;28.60;36.98;93385.13;5066749;28;20188;-77
2022/05/27 05:45:34;;;;;;;10.90;8.05;;;;;;;31.48;31.79;93391.47;5066907;28;20240;-76
2022/05/27 05:48:00;;;;;;;8.77;8.05;;;;;;;33.33;29.68;93401.63;5069588;28;20300;-77
2022/05/27 05:50:27;;;;;;;8.82;8.23;;;;;;;34.25;28.02;93401.41;5069064;28;20225;-78
2022/05/27 05:52:53;;;;;;;8.10;7.40;;;;;;;35.22;26.27;93403.88;5070377;28;20196;-77
2022/05/27 05:55:19;;;;;;;7.80;7.20;;;;;;;35.63;25.53;93413.25;5071139;28;20312;-79
2022/05/27 05:57:47;;;;;;;7.72;7.13;;;;;;;34.87;25.94;93402.50;5071842;28;20225;-79
2022/05/27 06:00:17;;;;;;;8.00;7.47;;;;;;;35.88;24.71;93409.34;5071070;28;20192;-79
2022/05/27 06:02:43;;;;;;;8.23;7.38;;;;;;;35.13;25.12;93407.09;5071445;28;20178;-79
2022/05/27 06:05:09;;;;;;;8.18;7.57;;;;;;;35.34;25.37;93416.84;5070911;28;20166;-79
2022/05/27 06:07:35;;;;;;;8.52;7.82;;;;;;;35.28;25.60;93411.13;5069845;28;20209;-79
2022/05/27 06:10:01;;;;;;;8.43;7.30;;;;;;;34.46;26.06;93398.44;5070369;28;20194;-77
2022/05/27 06:12:27;;;;;;;8.57;7.95;;;;;;;34.34;26.96;93415.25;5070080;28;20224;-74
2022/05/27 06:14:53;;;;;;;6.80;6.40;;;;;;;35.41;25.68;93416.78;5071726;28;20185;-74
2022/05/27 06:17:20;;;;;;;7.38;6.28;;;;;;;35.25;24.94;93422.84;5071814;28;20216;-74
2022/05/27 06:19:46;;;;;;;6.43;6.03;;;;;;;35.12;24.98;93416.44;5072412;28;20494;-75
2022/05/27 06:22:11;;;;;;;6.82;6.25;;;;;;;34.03;25.78;93415.25;5071614;28;20217;-76
2022/05/27 06:24:36;;;;;;;6.93;6.53;;;;;;;32.83;28.50;93395.09;5072373;28;20181;-75
2022/05/27 06:27:06;;;;;;;6.85;6.35;;;;;;;31.80;29.92;93402.19;5071689;28;20233;-76
2022/05/27 06:35:00;;;;;;;6.28;5.97;;;;;;;35.08;25.17;93413.03;5070208;28;20253;-74
2022/05/27 06:37:25;;;;;;;8.25;7.03;;;;;;;35.60;24.62;93416.03;5070096;28;20185;-74
2022/05/27 06:39:51;;;;;;;7.72;7.03;;;;;;;33.49;27.19;93404.59;5070658;28;20189;-74
2022/05/27 06:42:17;;;;;;;7.80;7.20;;;;;;;29.26;33.03;93376.00;5067731;28;20221;-74
2022/05/27 06:44:43;;;;;;;8.32;7.50;;;;;;;27.27;38.30;93375.56;5070269;28;20178;-74
2022/05/27 06:47:09;;;;;;;10.15;7.28;;;;;;;27.12;38.87;93379.13;5070707;28;20730;-73
2022/05/27 06:49:37;;;;;;;7.85;7.35;;;;;;;24.62;43.41;93373.59;5069540;28;20195;-74
2022/05/27 06:52:06;;;;;;;9.32;8.63;;;;;;;24.73;44.43;93366.63;5070894;28;20225;-74
2022/05/27 06:54:34;;;;;;;8.82;8.32;;;;;;;25.21;42.86;93355.47;5070821;28;20194;-72
2022/05/27 06:57:00;;;;;;;8.75;8.25;;;;;;;25.29;42.01;93365.19;5069558;28;20225;-73
2022/05/27 06:59:25;;;;;;;9.88;8.98;;;;;;;24.70;43.99;93360.06;5070376;28;20197;-73
2022/05/27 07:01:51;;;;;;;8.20;7.60;;;;;;;23.84;47.53;93338.06;5070706;28;20224;-74
2022/05/27 07:04:19;;;;;;;8.90;8.13;;;;;;;24.06;46.13;93356.19;5070925;28;20444;-73
2022/05/27 07:06:46;;;;;;;7.97;7.57;;;;;;;23.54;48.50;93356.31;5069934;28;20246;-74
2022/05/27 07:09:18;;;;;;;8.45;7.70;;;;;;;24.25;46.57;93351.72;5069908;28;20185;-73
2022/05/27 07:11:45;;;;;;;9.30;8.50;;;;;;;24.23;47.42;93353.19;5069266;28;20540;-73
2022/05/27 07:14:13;;;;;;;7.93;7.40;;;;;;;24.31;46.76;93352.25;5069902;28;20196;-73
2022/05/27 07:16:38;;;;;;;8.32;7.78;;;;;;;24.37;45.22;93356.97;5068067;28;20213;-73
2022/05/27 07:19:05;;;;;;;8.52;7.72;;;;;;;24.26;44.43;93350.59;5069855;28;20248;-73
2022/05/27 07:21:30;;;;;;;9.15;8.45;;;;;;;24.12;44.89;93349.47;5065948;28;20232;-73
2022/05/27 07:23:56;;;;;;;8.40;7.80;;;;;;;24.12;45.74;93333.47;5068731;28;20224;-73
2022/05/27 07:26:23;;;;;;;7.88;7.40;;;;;;;23.94;47.19;93329.56;5069927;28;20227;-76
2022/05/27 07:28:49;;;;;;;8.88;8.00;;;;;;;24.31;44.01;93336.97;5069594;28;20190;-75
2022/05/27 07:31:17;;;;;;;8.45;7.82;;;;;;;24.49;44.47;93332.06;5070266;28;20235;-75
2022/05/27 07:33:43;;;;;;;9.73;8.77;;;;;;;24.36;44.76;93314.63;5069659;28;20179;-75
2022/05/27 07:36:09;;;;;;;8.60;8.00;;;;;;;24.03;46.95;93324.88;5069424;28;20356;-75
2022/05/27 07:38:34;;;;;;;8.07;7.47;;;;;;;24.45;44.85;93321.28;5070038;28;20225;-75
2022/05/27 07:40:59;;;;;;;9.40;8.45;;;;;;;24.44;44.95;93324.31;5069239;28;20239;-75
2022/05/27 07:43:25;;;;;;;9.25;8.40;;;;;;;23.87;46.65;93327.50;5070810;28;20210;-78
2022/05/27 07:45:51;;;;;;;8.50;8.05;;;;;;;23.95;47.25;93320.44;5070026;28;20258;-81
2022/05/27 07:48:16;;;;;;;8.57;7.78;;;;;;;24.22;44.13;93291.03;5070557;28;20252;-78
2022/05/27 07:50:42;;;;;;;7.97;7.43;;;;;;;24.34;44.43;93314.19;5069768;28;20238;-77
2022/05/27 07:53:08;;;;;;;9.68;8.65;;;;;;;23.93;47.32;93314.66;5069822;28;20252;-78
2022/05/27 07:55:33;;;;;;;8.25;7.65;;;;;;;24.14;45.85;93301.88;5070111;28;20227;-79
2022/05/27 07:57:59;;;;;;;8.32;7.82;;;;;;;24.44;44.26;93301.06;5069788;28;20195;-79
2022/05/27 08:00:30;;;;;;;8.65;8.00;;;;;;;24.33;43.98;93283.28;5068989;28;20230;-78
2022/05/27 08:02:56;;;;;;;9.27;8.60;;;;;;;24.24;44.01;93304.00;5070223;28;20190;-79
2022/05/27 08:05:25;;;;;;;9.32;8.68;;;;;;;24.32;45.70;93306.53;5066803;28;20240;-76
2022/05/27 08:07:52;;;;;;;13.00;11.70;;;;;;;24.79;44.83;93309.13;5068824;28;20297;-77
2022/05/27 08:10:21;;;;;;;8.48;7.78;;;;;;;24.56;44.43;93303.63;5068976;28;20242;-77
2022/05/27 08:12:47;;;;;;;8.20;7.45;;;;;;;24.53;44.87;93300.91;5069801;28;20189;-79
2022/05/27 08:15:14;;;;;;;9.70;9.10;;;;;;;24.90;44.22;93307.47;5068352;28;20215;-78
2022/05/27 08:17:40;;;;;;;9.18;8.55;;;;;;;24.79;43.77;93287.75;5051388;28;20192;-80
2022/05/27 08:20:08;;;;;;;9.35;8.55;;;;;;;24.69;44.40;93297.09;5068532;28;20190;-79
2022/05/27 08:22:33;;;;;;;8.40;7.90;;;;;;;25.02;44.36;93292.06;5069521;28;20188;-79
2022/05/27 08:24:59;;;;;;;9.07;7.97;;;;;;;25.25;43.53;93292.91;5069062;28;20201;-79
2022/05/27 08:27:24;;;;;;;8.65;8.15;;;;;;;25.20;42.58;93297.75;5067866;28;20204;-79
2022/05/27 08:29:50;;;;;;;8.60;8.02;;;;;;;24.59;44.99;93302.16;5069874;28;20195;-78
2022/05/27 08:32:15;;;;;;;8.05;7.65;;;;;;;25.12;43.92;93298.75;5068183;28;20227;-77
2022/05/27 08:40:16;;;;;;;8.55;8.05;;;;;;;24.54;43.29;93287.19;5067412;28;20236;-76
2022/05/27 08:42:46;;;;;;;9.02;8.23;;;;;;;24.63;46.99;93261.06;5068734;28;20189;-77
2022/05/27 08:45:21;;;;;;;8.38;7.75;;;;;;;25.26;43.53;93286.44;5068494;28;20196;-77
2022/05/27 08:47:55;;;;;;;8.95;8.45;;;;;;;25.04;44.90;93281.03;5068326;28;20232;-77
2022/05/27 08:50:35;;;;;;;9.20;8.50;;;;;;;24.93;47.29;93277.38;5068026;28;20331;-76
2022/05/27 08:53:13;;;;;;;8.80;8.10;;;;;;;25.40;45.29;93275.28;5049048;28;20194;-76
2022/05/27 09:01:25;;;;;;;8.65;7.95;;;;;;;24.91;44.70;93269.72;5066046;28;20235;-74
2022/05/27 09:04:19;;;;;;;9.05;8.30;;;;;;;24.97;45.48;93272.84;5067729;28;20186;-76
2022/05/27 09:06:54;;;;;;;9.23;8.50;;;;;;;24.01;45.62;93268.41;5065074;28;20246;-77
2022/05/27 09:09:26;;;;;;;8.90;8.30;;;;;;;24.34;46.16;93256.25;5066672;28;20197;-78
2022/05/27 09:12:03;;;;;;;8.63;7.93;;;;;;;25.17;44.24;93267.16;5066243;28;20236;-75
2022/05/27 09:14:31;;;;;;;8.88;7.90;;;;;;;25.35;43.91;93267.56;5066909;28;20195;-76
2022/05/27 09:17:11;;;;;;;8.70;8.10;;;;;;;25.23;44.01;93265.00;5067105;28;20258;-77
2022/05/27 09:19:48;;;;;;;9.57;8.88;;;;;;;25.22;47.14;93263.44;5067210;28;20298;-77
2022/05/27 09:22:32;;;;;;;8.52;8.02;;;;;;;25.34;43.48;93257.97;5065786;28;20278;-76
2022/05/27 09:25:35;;;;;;;9.35;8.75;;;;;;;24.96;46.46;93249.94;5067109;28;20198;-76
2022/05/27 09:28:31;;;;;;;8.13;7.43;;;;;;;25.42;44.53;93256.97;5068791;28;20231;-78
2022/05/27 09:31:00;;;;;;;9.35;8.50;;;;;;;25.09;44.81;93254.03;5066538;28;20243;-76
2022/05/27 09:33:28;;;;;;;9.10;8.20;;;;;;;24.87;45.52;93247.47;5068118;28;20196;-81
2022/05/27 09:36:18;;;;;;;9.32;8.63;;;;;;;25.32;45.15;93252.19;5049841;28;20244;-81
2022/05/27 09:38:59;;;;;;;10.27;8.50;;;;;;;25.13;47.15;93246.84;5066057;28;20191;-82
2022/05/27 09:41:38;;;;;;;9.73;8.85;;;;;;;25.38;46.08;93242.78;5067603;28;20231;-81
2022/05/27 09:44:36;;;;;;;9.25;8.55;;;;;;;25.17;47.75;93234.31;5066658;28;20191;-82
2022/05/27 09:47:03;;;;;;;10.48;9.52;;;;;;;25.25;45.15;93238.66;5067002;28;20233;-84
2022/05/27 09:49:30;;;;;;;9.70;9.00;;;;;;;25.16;45.77;93225.53;5066875;28;20195;-80
2022/05/27 09:51:56;;;;;;;9.77;9.10;;;;;;;24.56;45.94;93185.38;5067500;28;20223;-80
2022/05/27 09:54:34;;;;;;;10.07;9.27;;;;;;;25.51;44.69;93227.34;5068441;28;20215;-80
2022/05/27 09:57:14;;;;;;;9.85;9.10;;;;;;;25.55;45.02;93223.59;5067698;28;20258;-78
2022/05/27 09:59:48;;;;;;;9.25;8.65;;;;;;;25.44;44.06;93216.50;5068118;28;20188;-79
2022/05/27 10:02:33;;;;;;;9.60;8.70;;;;;;;25.49;44.40;93208.19;5066638;28;20219;-80
2022/05/27 10:05:23;;;;;;;9.50;8.68;;;;;;;25.68;43.82;93216.97;5064266;28;20213;-79
2022/05/27 10:07:53;;;;;;;13.70;12.30;;;;;;;25.82;44.94;93206.47;5066933;28;20271;-77
2022/05/27 10:10:32;;;;;;;9.80;8.98;;;;;;;25.89;43.13;93195.88;5067351;28;20229;-78
2022/05/27 10:13:16;;;;;;;10.18;9.30;;;;;;;25.64;43.42;93200.06;5067602;28;20197;-82
2022/05/27 10:15:41;;;;;;;9.75;8.82;;;;;;;25.94;43.51;93202.84;5066397;28;20292;-77
2022/05/27 10:18:22;;;;;;;10.60;9.57;;;;;;;25.95;41.90;93194.44;5049958;28;20204;-79
2022/05/27 10:20:51;;;;;;;11.27;9.43;;;;;;;25.88;43.38;93183.66;5066807;28;20228;-78
2022/05/27 10:23:23;;;;;;;8.75;8.00;;;;;;;26.20;43.95;93186.81;5049543;28;20198;-85
2022/05/27 10:25:49;;;;;;;10.52;8.63;;;;;;;26.29;43.49;93180.06;5066476;28;20230;-79
2022/05/27 10:28:43;;;;;;;8.05;7.55;;;;;;;26.35;43.10;93186.63;5066771;28;20236;-78
2022/05/27 10:31:16;;;;;;;9.00;8.30;;;;;;;26.46;42.38;93171.50;5051027;28;20233;-77
2022/05/27 10:33:49;;;;;;;9.68;8.93;;;;;;;26.77;42.13;93173.81;5067142;28;20182;-79
2022/05/27 10:36:26;;;;;;;9.25;8.43;;;;;;;26.64;40.81;93164.50;5070720;28;20225;-80
2022/05/27 10:39:03;;;;;;;9.40;8.70;;;;;;;26.71;40.44;93167.25;5071019;28;20184;-79
2022/05/27 10:42:03;;;;;;;9.18;8.48;;;;;;;26.50;42.88;93166.19;5069227;28;20213;-79
2022/05/27 10:45:02;;;;;;;8.48;7.78;;;;;;;26.25;42.24;93163.19;5070697;28;20226;-76
2022/05/27 10:47:27;;;;;;;9.63;8.75;;;;;;;26.61;41.15;93156.38;5055430;28;20248;-77
2022/05/27 10:50:04;;;;;;;9.32;8.60;;;;;;;26.51;42.77;93157.00;5048353;28;20190;-77
2022/05/27 10:52:48;;;;;;;9.15;8.25;;;;;;;26.74;42.06;93155.81;5030290;28;20258;-80
2022/05/27 10:55:28;;;;;;;9.65;8.80;;;;;;;26.84;40.24;93145.56;5030923;28;20195;-76
2022/05/27 11:04:30;;;;;;;10.23;9.02;;;;;;;26.82;38.01;93142.50;5028430;28;20213;-76
2022/05/27 11:07:04;;;;;;;9.07;8.50;;;;;;;26.73;38.31;93138.19;5049920;28;20225;-76
2022/05/27 11:09:55;;;;;;;9.00;8.25;;;;;;;26.58;39.65;93138.34;5049079;28;20675;-76
2022/05/27 11:15:38;;;;;;;8.55;7.93;;;;;;;26.77;39.48;93128.28;5049541;28;20241;-75
2022/05/27 11:18:09;;;;;;;10.43;8.25;;;;;;;26.74;38.13;93133.63;5050360;28;20204;-76
2022/05/27 11:20:48;;;;;;;8.93;8.23;;;;;;;26.89;37.83;93092.41;5048169;28;20233;-76
2022/05/27 11:23:43;;;;;;;9.00;8.27;;;;;;;26.87;36.95;93118.81;5049959;28;20190;-77
2022/05/27 11:26:37;;;;;;;8.95;8.35;;;;;;;26.94;37.60;93118.13;5049542;28;20237;-74
2022/05/27 11:29:14;;;;;;;8.85;8.15;;;;;;;26.80;37.50;93117.97;5048757;28;20220;-77
2022/05/27 11:31:58;;;;;;;9.80;8.65;;;;;;;27.00;37.07;93100.56;5049581;28;20332;-76
2022/05/27 11:34:52;;;;;;;9.32;8.73;;;;;;;27.04;36.64;93093.31;5049459;28;20190;-76
2022/05/27 11:37:46;;;;;;;9.40;8.48;;;;;;;26.97;36.84;93086.00;5048979;28;20229;-75
2022/05/27 11:40:30;;;;;;;9.07;8.40;;;;;;;27.05;37.56;93089.50;5048640;28;20194;-76
2022/05/27 11:43:20;;;;;;;8.82;8.18;;;;;;;26.93;37.78;93076.38;5048496;28;20193;-77
2022/05/27 11:46:28;;;;;;;9.85;8.88;;;;;;;27.12;35.78;93078.84;5050230;28;20277;-76
2022/05/27 11:49:21;;;;;;;9.02;8.35;;;;;;;27.30;36.62;93069.09;5067945;28;20243;-78
2022/05/27 11:52:17;;;;;;;9.00;8.25;;;;;;;26.96;40.07;93072.97;5068705;28;20255;-78
2022/05/27 11:55:01;;;;;;;9.25;8.63;;;;;;;27.25;37.68;93062.13;5068692;28;20189;-76
2022/05/27 11:58:05;;;;;;;9.02;8.35;;;;;;;27.38;39.32;93060.72;5068187;28;20236;-75
2022/05/27 12:00:35;;;;;;;9.55;8.60;;;;;;;27.57;38.46;93059.69;5067653;28;20224;-76
2022/05/27 12:03:25;;;;;;;8.98;8.25;;;;;;;27.49;38.13;93050.06;5069137;28;20197;-74
2022/05/27 12:05:58;;;;;;;8.52;7.95;;;;;;;27.33;37.75;93050.31;5067786;28;20300;-76
2022/05/27 12:08:45;;;;;;;9.40;8.65;;;;;;;27.37;37.56;93045.00;5067658;28;20223;-75
2022/05/27 12:11:13;;;;;;;9.00;8.30;;;;;;;27.16;39.86;93042.13;5068769;28;20232;-75
2022/05/27 12:13:51;;;;;;;10.07;9.48;;;;;;;27.33;39.84;93030.81;5068330;28;20209;-76
2022/05/27 12:16:31;;;;;;;8.50;8.05;;;;;;;27.06;40.59;93040.09;5068977;28;20212;-74
2022/05/27 12:19:02;;;;;;;8.88;8.38;;;;;;;27.19;37.74;93019.94;5049693;28;20197;-75
2022/05/27 12:21:37;;;;;;;8.93;8.40;;;;;;;27.06;38.63;93032.06;5066714;28;20221;-74
2022/05/27 12:24:16;;;;;;;10.35;9.40;;;;;;;27.29;39.15;93020.03;5066725;28;20196;-74
2022/05/27 12:26:42;;;;;;;9.73;8.95;;;;;;;27.17;39.10;93017.63;5066309;28;20462;-76
2022/05/27 12:29:11;;;;;;;10.05;9.38;;;;;;;27.16;39.58;93021.44;5068672;28;20245;-77
2022/05/27 12:31:38;;;;;;;9.00;8.40;;;;;;;27.28;38.55;93002.41;5067484;28;20227;-75
2022/05/27 12:34:25;;;;;;;10.45;9.68;;;;;;;27.68;37.42;93004.97;5066515;28;20185;-76